Terminal Aerodrome Forecast
Issued by NWS Charleston, SC

Home | Current Version | Previous Version | Text Only | Print | Product List | Glossary On
Versions: 1 2 3 4 5 6 7 8 9 10 11 12
967
FTUS42 KCHS 301720
TAFSAV
TAF
KSAV 301720Z 3018/3118 20010KT P6SM SCT050
     FM310000 21005KT P6SM FEW080 SCT250=

USA.gov is the U.S. government's official web portal to all federal, state and local government web resources and services.